sensor_id;sensor_type;location;lat;lon;timestamp;pressure;altitude;pressure_sealevel;temperature;humidity
55014;BME280;40916;51.632;5.552;2023-02-04T00:00:16;1028.1950287970335;;;6.979700885695589;0
55014;BME280;40916;51.632;5.552;2023-02-04T00:01:15;1028.2059841437297;;;6.979700885695589;0
55014;BME280;40916;51.632;5.552;2023-02-04T00:02:16;1028.161889893165;;;6.958530284338348;0
55014;BME280;40916;51.632;5.552;2023-02-04T00:03:17;1028.2009340102163;;;6.96558766183886;0
55014;BME280;40916;51.632;5.552;2023-02-04T00:04:16;1028.1703151795273;;;6.951472396229555;0
55014;BME280;40916;51.632;5.552;2023-02-04T00:05:16;1028.0295221063536;;;6.89499088901723;0
55014;BME280;40916;51.632;5.552;2023-02-04T00:06:16;1028.1638287841631;;;6.9232357343057735;0
55014;BME280;40916;51.632;5.552;2023-02-04T00:07:16;1028.195260258733;;;6.90911433526454;0
55014;BME280;40916;51.632;5.552;2023-02-04T00:08:16;1028.1682639811036;;;6.89499088901723;0
55014;BME280;40916;51.632;5.552;2023-02-04T00:09:16;1028.169367608558;;;6.8879283977643375;0
55014;BME280;40916;51.632;5.552;2023-02-04T00:10:17;1028.1763169488274;;;6.866737849437502;0
55014;BME280;40916;51.632;5.552;2023-02-04T00:11:17;1028.136157290555;;;6.866737849437502;0
55014;BME280;40916;51.632;5.552;2023-02-04T00:12:17;1028.1346962731043;;;6.852608253368615;0
55014;BME280;40916;51.632;5.552;2023-02-04T00:13:17;1028.2317948236566;;;6.838476604620702;0
55014;BME280;40916;51.632;5.552;2023-02-04T00:14:17;1028.2412662493239;;;6.8243429018224795;0
55014;BME280;40916;51.632;5.552;2023-02-04T00:15:17;1028.2324767805005;;;6.810207143601438;0
55014;BME280;40916;51.632;5.552;2023-02-04T00:16:17;1028.327387966966;;;6.810207143601438;0
55014;BME280;40916;51.632;5.552;2023-02-04T00:17:17;1028.2659778086738;;;6.781929455394771;0
55014;BME280;40916;51.632;5.552;2023-02-04T00:18:17;1028.2670470141957;;;6.7748587465559105;0
55014;BME280;40916;51.632;5.552;2023-02-04T00:19:17;1028.160742873213;;;6.753643528996172;0
55014;BME280;40916;51.632;5.552;2023-02-04T00:20:18;1028.2942610484108;;;6.739497473030614;0
55014;BME280;40916;51.632;5.552;2023-02-04T00:21:18;1028.3464147772834;;;6.732423671252782;0
55014;BME280;40916;51.632;5.552;2023-02-04T00:22:18;1028.3511180479584;;;6.725349353381475;0
55014;BME280;40916;51.632;5.552;2023-02-04T00:23:18;1028.3751165714891;;;6.711199168667658;0
55014;BME280;40916;51.632;5.552;2023-02-04T00:24:18;1028.348012003923;;;6.697046917506839;0
55014;BME280;40916;51.632;5.552;2023-02-04T00:25:18;1028.4210025915406;;;6.697046917506839;0
55014;BME280;40916;51.632;5.552;2023-02-04T00:26:18;1028.341224214781;;;6.668736210308698;0
55014;BME280;40916;51.632;5.552;2023-02-04T00:27:18;1028.3140985901643;;;6.654577751500543;0
55014;BME280;40916;51.632;5.552;2023-02-04T00:28:18;1028.415244127452;;;6.661657239816471;0
55014;BME280;40916;51.632;5.552;2023-02-04T00:29:19;1028.3516211705967;;;6.647497745187469;0
55014;BME280;40916;51.632;5.552;2023-02-04T00:30:19;1028.3088608772373;;;6.640417220703721;0
55014;BME280;40916;51.632;5.552;2023-02-04T00:31:19;1028.3015627285263;;;6.640417220703721;0
55014;BME280;40916;51.632;5.552;2023-02-04T00:32:19;1028.356743323853;;;6.612089937588763;0
55014;BME280;40916;51.632;5.552;2023-02-04T00:33:19;1028.400529528473;;;6.612089937588763;0
55014;BME280;40916;51.632;5.552;2023-02-04T00:34:19;1028.3462089250263;;;6.583754349840827;0
55014;BME280;40916;51.632;5.552;2023-02-04T00:35:19;1028.5355370989892;;;6.612089937588763;0
55014;BME280;40916;51.632;5.552;2023-02-04T00:36:19;1028.4656033012348;;;6.590839025946192;0
55014;BME280;40916;51.632;5.552;2023-02-04T00:37:19;1028.3972896578514;;;6.583754349840827;0
55014;BME280;40916;51.632;5.552;2023-02-04T00:38:19;1028.353506171166;;;6.583754349840827;0
55014;BME280;40916;51.632;5.552;2023-02-04T00:39:20;1028.4629649195278;;;6.583754349840827;0
55014;BME280;40916;51.632;5.552;2023-02-04T00:40:20;1028.4447217874747;;;6.583754349840827;0
55014;BME280;40916;51.632;5.552;2023-02-04T00:41:20;1028.3946503169452;;;6.576669153999571;0
55014;BME280;40916;51.632;5.552;2023-02-04T00:42:20;1028.4583059346855;;;6.590839025946192;0
55014;BME280;40916;51.632;5.552;2023-02-04T00:43:20;1028.4175485772425;;;6.56958343824812;0
55014;BME280;40916;51.632;5.552;2023-02-04T00:44:20;1028.4659832647526;;;6.562497202412089;0
55014;BME280;40916;51.632;5.552;2023-02-04T00:45:20;1028.3548864219415;;;6.548323169788382;0
55014;BME280;40916;51.632;5.552;2023-02-04T00:46:20;1028.36947978351;;;6.548323169788382;0
55014;BME280;40916;51.632;5.552;2023-02-04T00:47:20;1028.364830026753;;;6.555410446317023;0
55014;BME280;40916;51.632;5.552;2023-02-04T00:48:21;1028.3658314429422;;;6.548323169788382;0
55014;BME280;40916;51.632;5.552;2023-02-04T00:49:21;1028.3794236160888;;;6.555410446317023;0
55014;BME280;40916;51.632;5.552;2023-02-04T00:50:21;1028.341292779097;;;6.54123537265156;0
55014;BME280;40916;51.632;5.552;2023-02-04T00:51:21;1028.363182479776;;;6.54123537265156;0
55014;BME280;40916;51.632;5.552;2023-02-04T00:52:21;1028.363182479776;;;6.54123537265156;0
55014;BME280;40916;51.632;5.552;2023-02-04T00:53:21;1028.4215550355464;;;6.54123537265156;0
55014;BME280;40916;51.632;5.552;2023-02-04T00:54:21;1028.4726310464566;;;6.54123537265156;0
55014;BME280;40916;51.632;5.552;2023-02-04T00:55:21;1028.416557991781;;;6.49869764727044;0
55014;BME280;40916;51.632;5.552;2023-02-04T00:56:21;1028.3863879202218;;;6.505788571727663;0
55014;BME280;40916;51.632;5.552;2023-02-04T00:57:21;1028.396636814744;;;6.4845142326827165;0
55014;BME280;40916;51.632;5.552;2023-02-04T00:58:22;1028.4423675381336;;;6.47032872936197;0
55014;BME280;40916;51.632;5.552;2023-02-04T00:59:22;1028.4243708265;;;6.441951450906156;0
55014;BME280;40916;51.632;5.552;2023-02-04T01:00:22;1028.4080661145213;;;6.4277596729603275;0
55014;BME280;40916;51.632;5.552;2023-02-04T01:01:22;1028.4264949617232;;;6.399369832596452;0
55014;BME280;40916;51.632;5.552;2023-02-04T01:02:22;1028.4065197553969;;;6.385171767360074;0
55014;BME280;40916;51.632;5.552;2023-02-04T01:03:22;1028.4613652437145;;;6.356769339723126;0
55014;BME280;40916;51.632;5.552;2023-02-04T01:04:22;1028.4213593893578;;;6.32835850644539;0
55014;BME280;40916;51.632;5.552;2023-02-04T01:05:22;1028.3976993672661;;;6.314149934153267;0
55014;BME280;40916;51.632;5.552;2023-02-04T01:06:22;1028.5663644064903;;;6.307044858473986;0
55014;BME280;40916;51.632;5.552;2023-02-04T01:07:22;1028.4588551327056;;;6.2644033397585765;0
55014;BME280;40916;51.632;5.552;2023-02-04T01:08:22;1028.5053422648389;;;6.243075459425565;0
55014;BME280;40916;51.632;5.552;2023-02-04T01:09:23;1028.580070367837;;;6.228854231877975;0
55014;BME280;40916;51.632;5.552;2023-02-04T01:10:23;1028.5946015218838;;;6.200405432787864;0
55014;BME280;40916;51.632;5.552;2023-02-04T01:11:23;1028.5981613310685;;;6.17194816552243;0
55014;BME280;40916;51.632;5.552;2023-02-04T01:12:23;1028.7129306111474;;;6.15771635275086;0
55014;BME280;40916;51.632;5.552;2023-02-04T01:13:23;1028.663654106328;;;6.1434824186451635;0
55014;BME280;40916;51.632;5.552;2023-02-04T01:14:23;1028.6645292787857;;;6.136364655644325;0
55014;BME280;40916;51.632;5.552;2023-02-04T01:15:23;1028.6161135954771;;;6.115008180698968;0
55014;BME280;40916;51.632;5.552;2023-02-04T01:16:24;1028.636070245941;;;6.100767873989032;0
55014;BME280;40916;51.632;5.552;2023-02-04T01:17:24;1028.7252658246614;;;6.086525440206088;0
55014;BME280;40916;51.632;5.552;2023-02-04T01:18:24;1028.676808395431;;;6.065157798123906;0
55014;BME280;40916;51.632;5.552;2023-02-04T01:19:24;1028.734021866777;;;6.043785362033201;0
55014;BME280;40916;51.632;5.552;2023-02-04T01:20:24;1028.7026165924212;;;6.001026088359076;0
55014;BME280;40916;51.632;5.552;2023-02-04T01:21:24;1028.8564936371513;;;5.993897673780541;0
55014;BME280;40916;51.632;5.552;2023-02-04T01:22:24;1028.6663075518802;;;5.936851100941258;0
55014;BME280;40916;51.632;5.552;2023-02-04T01:23:24;1028.7258038314899;;;5.894043667656845;0
55014;BME280;40916;51.632;5.552;2023-02-04T01:24:24;1028.8010561315998;;;5.872632703798416;0
55014;BME280;40916;51.632;5.552;2023-02-04T01:25:24;1028.772994077928;;;5.829796257058433;0
55014;BME280;40916;51.632;5.552;2023-02-04T01:26:24;1028.7703566401854;;;5.786940418755453;0
55014;BME280;40916;51.632;5.552;2023-02-04T01:27:24;1028.819998782827;;;5.765505215418159;0
55014;BME280;40916;51.632;5.552;2023-02-04T01:28:25;1028.7858526482078;;;5.74406514935707;0
55014;BME280;40916;51.632;5.552;2023-02-04T01:29:25;1028.7357203253594;;;5.701170409223362;0
55014;BME280;40916;51.632;5.552;2023-02-04T01:30:25;1028.7976273168085;;;5.701170409223362;0
55014;BME280;40916;51.632;5.552;2023-02-04T01:31:25;1028.7619866004877;;;5.658256158606498;0
55014;BME280;40916;51.632;5.552;2023-02-04T01:32:25;1028.7670826677427;;;5.643947065852373;0
55014;BME280;40916;51.632;5.552;2023-02-04T01:33:25;1028.851492497312;;;5.601006739240848;0
55014;BME280;40916;51.632;5.552;2023-02-04T01:34:25;1028.7756294792434;;;5.558046808979583;0
55014;BME280;40916;51.632;5.552;2023-02-04T01:35:25;1028.8211934457984;;;5.500736338056377;0
55014;BME280;40916;51.632;5.552;2023-02-04T01:36:26;1028.8305068125924;;;5.4792358886110755;0
55014;BME280;40916;51.632;5.552;2023-02-04T01:37:26;1028.8288809385988;;;5.457730509772546;0
55014;BME280;40916;51.632;5.552;2023-02-04T01:38:26;1028.9284800710432;;;5.44339084950191;0
55014;BME280;40916;51.632;5.552;2023-02-04T01:39:26;1028.8086811238434;;;5.400358695193184;0
55014;BME280;40916;51.632;5.552;2023-02-04T01:40:26;1028.8609257440403;;;5.386010247589674;0
55014;BME280;40916;51.632;5.552;2023-02-04T01:41:26;1028.9349922088813;;;5.371659599398285;0
55014;BME280;40916;51.632;5.552;2023-02-04T01:42:26;1028.89750976046;;;5.342951695232074;0
55014;BME280;40916;51.632;5.552;2023-02-04T01:43:26;1028.9569875915636;;;5.328594436243929;0
55014;BME280;40916;51.632;5.552;2023-02-04T01:44:26;1028.8727744929708;;;5.292691631531262;0
55014;BME280;40916;51.632;5.552;2023-02-04T01:45:26;1028.9243264996053;;;5.2855094135505105;0
55014;BME280;40916;51.632;5.552;2023-02-04T01:46:27;1028.9807309826172;;;5.263959442127902;0
55014;BME280;40916;51.632;5.552;2023-02-04T01:47:27;1028.8757938097165;;;5.213656799193231;0
55014;BME280;40916;51.632;5.552;2023-02-04T01:48:27;1028.9430388672492;;;5.192090207194838;0
55014;BME280;40916;51.632;5.552;2023-02-04T01:49:27;1029.0278660643144;;;5.1777097032426305;0
55014;BME280;40916;51.632;5.552;2023-02-04T01:50:27;1029.0234631538929;;;5.141748716416;0
55014;BME280;40916;51.632;5.552;2023-02-04T01:51:27;1029.0184471689072;;;5.11296990950596;0
55014;BME280;40916;51.632;5.552;2023-02-04T01:52:27;1028.927765127401;;;5.0625855319543405;0
55014;BME280;40916;51.632;5.552;2023-02-04T01:53:27;1029.0130291420521;;;5.04098385071396;0
55014;BME280;40916;51.632;5.552;2023-02-04T01:54:27;1029.036980801468;;;5.012173778381694;0
55014;BME280;40916;51.632;5.552;2023-02-04T01:55:29;1029.0437505585953;;;4.968941864846066;0
55014;BME280;40916;51.632;5.552;2023-02-04T01:56:28;1029.056701817371;;;4.940109367805135;0
55014;BME280;40916;51.632;5.552;2023-02-04T01:57:28;1028.9838556762375;;;4.889630854725205;0
55014;BME280;40916;51.632;5.552;2023-02-04T01:58:28;1029.003496925148;;;4.867988760266201;0
55014;BME280;40916;51.632;5.552;2023-02-04T01:59:28;1029.0672101058703;;;4.839124738710904;0
55014;BME280;40916;51.632;5.552;2023-02-04T02:00:29;1029.0482155187383;;;4.795811761924753;0
55014;BME280;40916;51.632;5.552;2023-02-04T02:01:33;1029.0632139087065;;;4.788590953107022;0
55014;BME280;40916;51.632;5.552;2023-02-04T02:02:45;1029.1254549621829;;;4.781369578239456;0
55014;BME280;40916;51.632;5.552;2023-02-04T02:03:28;1029.0963808930537;;;4.781369578239456;0
55014;BME280;40916;51.632;5.552;2023-02-04T02:04:29;1028.969639854216;;;4.774147637126738;0
55014;BME280;40916;51.632;5.552;2023-02-04T02:05:30;1029.033678032315;;;4.795811761924753;0
55014;BME280;40916;51.632;5.552;2023-02-04T02:06:29;1029.0663873793842;;;4.795811761924753;0
55014;BME280;40916;51.632;5.552;2023-02-04T02:07:29;1029.0545555227402;;;4.810251682191517;0
55014;BME280;40916;51.632;5.552;2023-02-04T02:08:29;1029.1236108010748;;;4.810251682191517;0
55014;BME280;40916;51.632;5.552;2023-02-04T02:09:29;1029.1090728442518;;;4.810251682191517;0
55014;BME280;40916;51.632;5.552;2023-02-04T02:10:29;1029.1027311093983;;;4.795811761924753;0
55014;BME280;40916;51.632;5.552;2023-02-04T02:11:29;1029.1422473553337;;;4.803032004887871;0
55014;BME280;40916;51.632;5.552;2023-02-04T02:12:29;1029.159955701274;;;4.810251682191517;0
55014;BME280;40916;51.632;5.552;2023-02-04T02:13:29;1029.1454177397986;;;4.810251682191517;0
55014;BME280;40916;51.632;5.552;2023-02-04T02:14:30;1029.16265596866;;;4.824689340600468;0
55014;BME280;40916;51.632;5.552;2023-02-04T02:15:30;1029.176251696962;;;4.839124738710904;0
55014;BME280;40916;51.632;5.552;2023-02-04T02:16:30;1029.222552957399;;;4.853557878080672;0
55014;BME280;40916;51.632;5.552;2023-02-04T02:17:30;1029.1576031068612;;;4.84634159064106;0
55014;BME280;40916;51.632;5.552;2023-02-04T02:18:30;1029.098968530345;;;4.853557878080672;0
55014;BME280;40916;51.632;5.552;2023-02-04T02:19:31;1029.201220456301;;;4.84634159064106;0
55014;BME280;40916;51.632;5.552;2023-02-04T02:20:30;1029.2688483061024;;;4.867988760266201;0
55014;BME280;40916;51.632;5.552;2023-02-04T02:21:31;1029.2656933022583;;;4.8607736012242455;0
55014;BME280;40916;51.632;5.552;2023-02-04T02:22:31;1029.2906580362192;;;4.867988760266201;0
55014;BME280;40916;51.632;5.552;2023-02-04T02:23:42;1029.290176258381;;;4.875203355400867;0
55014;BME280;40916;51.632;5.552;2023-02-04T02:24:31;1029.223284231483;;;4.8968437593030885;0
55014;BME280;40916;51.632;5.552;2023-02-04T02:25:31;1029.2903768430028;;;4.925689748244412;0
55014;BME280;40916;51.632;5.552;2023-02-04T02:26:31;1029.2338306752988;;;4.954526739490202;0
55014;BME280;40916;51.632;5.552;2023-02-04T02:27:31;1029.280074739848;;;4.968941864846066;0
55014;BME280;40916;51.632;5.552;2023-02-04T02:28:31;1029.2894369045225;;;4.99056034439198;0
55014;BME280;40916;51.632;5.552;2023-02-04T02:29:31;1029.268105365312;;;5.033782172016558;0
55014;BME280;40916;51.632;5.552;2023-02-04T02:30:31;1029.2270366972941;;;5.048184970141332;0
55014;BME280;40916;51.632;5.552;2023-02-04T02:31:31;1029.2134138525255;;;5.084182184948599;0
55014;BME280;40916;51.632;5.552;2023-02-04T02:32:31;1029.2481276064896;;;5.105773814874311;0
55014;BME280;40916;51.632;5.552;2023-02-04T02:33:31;1029.2402983586749;;;5.11296990950596;0
55014;BME280;40916;51.632;5.552;2023-02-04T02:34:32;1029.2319065928968;;;5.127360426901948;0
55014;BME280;40916;51.632;5.552;2023-02-04T02:35:32;1029.2702222592272;;;5.148942026194899;0
55014;BME280;40916;51.632;5.552;2023-02-04T02:36:32;1029.3012471270945;;;5.170518617909451;0
55014;BME280;40916;51.632;5.552;2023-02-04T02:37:32;1029.3110086186114;;;5.18490023294094;0
55014;BME280;40916;51.632;5.552;2023-02-04T02:38:32;1029.1764217705963;;;5.18490023294094;0
55014;BME280;40916;51.632;5.552;2023-02-04T02:39:32;1029.2977678014254;;;5.213656799193231;0
55014;BME280;40916;51.632;5.552;2023-02-04T02:40:32;1029.3317836489389;;;5.242404490508051;0
55014;BME280;40916;51.632;5.552;2023-02-04T02:41:32;1029.3257489949756;;;5.271143319038114;0
55014;BME280;40916;51.632;5.552;2023-02-04T02:42:32;1029.3451475526738;;;5.29987329691394;0
55014;BME280;40916;51.632;5.552;2023-02-04T02:43:33;1029.3281274286703;;;5.328594436243929;0
55014;BME280;40916;51.632;5.552;2023-02-04T02:44:33;1029.3074315388287;;;5.357306749114411;0
55014;BME280;40916;51.632;5.552;2023-02-04T02:45:33;1029.325446982309;;;5.400358695193184;0
55014;BME280;40916;51.632;5.552;2023-02-04T02:46:33;1029.321550553147;;;5.44339084950191;0
55014;BME280;40916;51.632;5.552;2023-02-04T02:47:33;1029.2636460003753;;;5.4792358886110755;0
55014;BME280;40916;51.632;5.552;2023-02-04T02:48:33;1029.2996423833777;;;5.522231863150786;0
55014;BME280;40916;51.632;5.552;2023-02-04T02:49:33;1029.3435403944989;;;5.558046808979583;0
55014;BME280;40916;51.632;5.552;2023-02-04T02:50:33;1029.2904908502665;;;5.579529227070754;0
55014;BME280;40916;51.632;5.552;2023-02-04T02:51:33;1029.2607792649646;;;5.62247935050021;0
55014;BME280;40916;51.632;5.552;2023-02-04T02:52:33;1029.3132536192943;;;5.643947065852373;0
55014;BME280;40916;51.632;5.552;2023-02-04T02:53:33;1029.2979900794353;;;5.686867828815174;0
55014;BME280;40916;51.632;5.552;2023-02-04T02:54:34;1029.2419020102018;;;5.701170409223362;0
55014;BME280;40916;51.632;5.552;2023-02-04T02:55:34;1029.3096202836407;;;5.715470821800981;0
55014;BME280;40916;51.632;5.552;2023-02-04T02:56:34;1029.3183214423711;;;5.736917379207949;0
55014;BME280;40916;51.632;5.552;2023-02-04T02:57:34;1029.3969521135223;;;5.751212378652674;0
55014;BME280;40916;51.632;5.552;2023-02-04T02:58:34;1029.3910573161713;;;5.772650823255237;0
55014;BME280;40916;51.632;5.552;2023-02-04T02:59:34;1029.3749755028646;;;5.786940418755453;0
55014;BME280;40916;51.632;5.552;2023-02-04T03:00:34;1029.2869415160633;;;5.758359067278491;0
55014;BME280;40916;51.632;5.552;2023-02-04T03:01:34;1029.3946994946584;;;5.772650823255237;0
55014;BME280;40916;51.632;5.552;2023-02-04T03:02:34;1029.3969521135223;;;5.751212378652674;0
55014;BME280;40916;51.632;5.552;2023-02-04T03:03:35;1029.3102918940297;;;5.74406514935707;0
55014;BME280;40916;51.632;5.552;2023-02-04T03:04:36;1029.3838754958288;;;5.736917379207949;0
55014;BME280;40916;51.632;5.552;2023-02-04T03:05:36;1029.2775143702174;;;5.74406514935707;0
55014;BME280;40916;51.632;5.552;2023-02-04T03:06:35;1029.3175757894946;;;5.74406514935707;0
55014;BME280;40916;51.632;5.552;2023-02-04T03:07:35;1029.3459640205785;;;5.751212378652674;0
55014;BME280;40916;51.632;5.552;2023-02-04T03:08:35;1029.334288318753;;;5.758359067278491;0
55014;BME280;40916;51.632;5.552;2023-02-04T03:09:35;1029.3241119877532;;;5.751212378652674;0
55014;BME280;40916;51.632;5.552;2023-02-04T03:10:35;1029.2410949104099;;;5.74406514935707;0
55014;BME280;40916;51.632;5.552;2023-02-04T03:11:35;1029.3664087845816;;;5.729769068021504;0
55014;BME280;40916;51.632;5.552;2023-02-04T03:12:35;1029.3926418268381;;;5.722620215613837;0
55014;BME280;40916;51.632;5.552;2023-02-04T03:13:36;1029.2557489286214;;;5.6725630791016;0
55014;BME280;40916;51.632;5.552;2023-02-04T03:14:36;1029.2790445658118;;;5.658256158606498;0
55014;BME280;40916;51.632;5.552;2023-02-04T03:15:36;1029.327818213957;;;5.643947065852373;0
55014;BME280;40916;51.632;5.552;2023-02-04T03:16:36;1029.3692981732893;;;5.629635799360397;0
55014;BME280;40916;51.632;5.552;2023-02-04T03:17:36;1029.3707168155818;;;5.615322357650392;0
55014;BME280;40916;51.632;5.552;2023-02-04T03:18:36;1029.3277325158508;;;5.60816482062571;0
55014;BME280;40916;51.632;5.552;2023-02-04T03:19:36;1029.354734030292;;;5.629635799360397;0
55014;BME280;40916;51.632;5.552;2023-02-04T03:20:36;1029.4661819564078;;;5.643947065852373;0
55014;BME280;40916;51.632;5.552;2023-02-04T03:21:36;1029.4705362519646;;;5.636791704416094;0
55014;BME280;40916;51.632;5.552;2023-02-04T03:22:36;1029.5185807466928;;;5.629635799360397;0
55014;BME280;40916;51.632;5.552;2023-02-04T03:23:36;1029.4755970152316;;;5.62247935050021;0
55014;BME280;40916;51.632;5.552;2023-02-04T03:24:37;1029.4988532175648;;;5.60816482062571;0
55014;BME280;40916;51.632;5.552;2023-02-04T03:25:37;1029.562147688005;;;5.593848113310404;0
55014;BME280;40916;51.632;5.552;2023-02-04T03:26:37;1029.6247361800415;;;5.586688942648895;0
55014;BME280;40916;51.632;5.552;2023-02-04T03:27:37;1029.6042773739816;;;5.572368966390329;0
55014;BME280;40916;51.632;5.552;2023-02-04T03:28:38;1029.4782376307915;;;5.558046808979583;0
55014;BME280;40916;51.632;5.552;2023-02-04T03:29:40;1029.4716439029626;;;5.550884911877539;0
55014;BME280;40916;51.632;5.552;2023-02-04T03:30:37;1029.5487763851495;;;5.543722468929754;0
55014;BME280;40916;51.632;5.552;2023-02-04T03:31:37;1029.510772810549;;;5.522231863150786;0
55014;BME280;40916;51.632;5.552;2023-02-04T03:32:37;1029.5719789777754;;;5.529395944752579;0
55014;BME280;40916;51.632;5.552;2023-02-04T03:33:37;1029.558770216748;;;5.515067234958444;0
55014;BME280;40916;51.632;5.552;2023-02-04T03:34:38;1029.5842511121884;;;5.515067234958444;0
55014;BME280;40916;51.632;5.552;2023-02-04T03:35:38;1029.5544550168977;;;5.522231863150786;0
55014;BME280;40916;51.632;5.552;2023-02-04T03:36:38;1029.4968880659076;;;5.515067234958444;0
55014;BME280;40916;51.632;5.552;2023-02-04T03:37:38;1029.5637537276803;;;5.500736338056377;0
55014;BME280;40916;51.632;5.552;2023-02-04T03:38:38;1029.498902960896;;;5.493570068973572;0
55014;BME280;40916;51.632;5.552;2023-02-04T03:39:38;1029.5614484979951;;;5.486403252554055;0
55014;BME280;40916;51.632;5.552;2023-02-04T03:40:38;1029.6401940323128;;;5.500736338056377;0
55014;BME280;40916;51.632;5.552;2023-02-04T03:41:38;1029.617371342203;;;5.472067976957792;0
55014;BME280;40916;51.632;5.552;2023-02-04T03:42:38;1029.617371342203;;;5.472067976957792;0
55014;BME280;40916;51.632;5.552;2023-02-04T03:43:38;1029.604783050182;;;5.4505609538664785;0
55014;BME280;40916;51.632;5.552;2023-02-04T03:44:38;1029.5726796289346;;;5.44339084950191;0
55014;BME280;40916;51.632;5.552;2023-02-04T03:45:39;1029.6454707691983;;;5.44339084950191;0
55014;BME280;40916;51.632;5.552;2023-02-04T03:46:39;1029.6090751932347;;;5.44339084950191;0
55014;BME280;40916;51.632;5.552;2023-02-04T03:47:39;1029.5637076784733;;;5.421877243784117;0
55014;BME280;40916;51.632;5.552;2023-02-04T03:48:39;1029.5375848724511;;;5.42904899464812;0
55014;BME280;40916;51.632;5.552;2023-02-04T03:49:39;1029.595815931411;;;5.42904899464812;0
55014;BME280;40916;51.632;5.552;2023-02-04T03:50:39;1029.5902245946959;;;5.4505609538664785;0
55014;BME280;40916;51.632;5.552;2023-02-04T03:51:39;1029.5945169661152;;;5.44339084950191;0
55014;BME280;40916;51.632;5.552;2023-02-04T03:52:39;1029.5852726896032;;;5.464899517407286;0
55014;BME280;40916;51.632;5.552;2023-02-04T03:53:39;1029.551855210013;;;5.472067976957792;0
55014;BME280;40916;51.632;5.552;2023-02-04T03:54:40;1029.5081778095496;;;5.472067976957792;0
55014;BME280;40916;51.632;5.552;2023-02-04T03:55:40;1029.611073910196;;;5.500736338056377;0
55014;BME280;40916;51.632;5.552;2023-02-04T03:56:40;1029.4608606446693;;;5.472067976957792;0
55014;BME280;40916;51.632;5.552;2023-02-04T03:57:40;1029.525714210206;;;5.4792358886110755;0
55014;BME280;40916;51.632;5.552;2023-02-04T03:58:40;1029.5584727789544;;;5.4792358886110755;0
55014;BME280;40916;51.632;5.552;2023-02-04T03:59:40;1029.5822902557059;;;5.457730509772546;0
55014;BME280;40916;51.632;5.552;2023-02-04T04:00:40;1029.665346732197;;;5.464899517407286;0
55014;BME280;40916;51.632;5.552;2023-02-04T04:01:40;1029.566700398199;;;5.42904899464812;0
55014;BME280;40916;51.632;5.552;2023-02-04T04:02:40;1029.5504374893844;;;5.407532094244296;0
55014;BME280;40916;51.632;5.552;2023-02-04T04:03:41;1029.6953680489974;;;5.414704943712042;0
55014;BME280;40916;51.632;5.552;2023-02-04T04:04:41;1029.5827294526632;;;5.371659599398285;0
55014;BME280;40916;51.632;5.552;2023-02-04T04:05:41;1029.6276516953865;;;5.357306749114411;0
55014;BME280;40916;51.632;5.552;2023-02-04T04:06:41;1029.6046637820841;;;5.328594436243929;0
55014;BME280;40916;51.632;5.552;2023-02-04T04:07:41;1029.7114100243089;;;5.314234970641252;0
55014;BME280;40916;51.632;5.552;2023-02-04T04:08:41;1029.5695068630164;;;5.271143319038114;0
55014;BME280;40916;51.632;5.552;2023-02-04T04:09:41;1029.5864400200853;;;5.242404490508051;0
55014;BME280;40916;51.632;5.552;2023-02-04T04:10:41;1029.5912548793738;;;5.22803175345776;0
55014;BME280;40916;51.632;5.552;2023-02-04T04:11:41;1029.5966413994674;;;5.206468490130749;0
55014;BME280;40916;51.632;5.552;2023-02-04T04:12:42;1029.5541455720106;;;5.192090207194838;0
55014;BME280;40916;51.632;5.552;2023-02-04T04:13:42;1029.624973470455;;;5.170518617909451;0
55014;BME280;40916;51.632;5.552;2023-02-04T04:14:42;1029.6121192255882;;;5.148942026194899;0
55014;BME280;40916;51.632;5.552;2023-02-04T04:15:42;1029.5695932720632;;;5.134554850048676;0
55014;BME280;40916;51.632;5.552;2023-02-04T04:16:42;1029.599800778289;;;5.12016544678476;0
55014;BME280;40916;51.632;5.552;2023-02-04T04:17:42;1029.6372713445141;;;5.105773814874311;0